Time;durP1;ratioP1;P1;durP2;ratioP2;P2;SDS_P1;SDS_P2;PMS_P1;PMS_P2;Temp;Humidity;BMP_temperature;BMP_pressure;BME280_temperature;BME280_humidity;BME280_pressure;Samples;Min_cycle;Max_cycle;Signal;HPM_P1;HPM_P2
2022/06/07 00:00:38;;;;;;;;;;;;;;;;;;;;;
2022/06/07 00:03:51;;;;;;;;;;;;;;;;;;;;;
2022/06/07 00:06:46;;;;;;;;;3.00;2.00;;;;;18.35;55.86;101287.94;4769714;29;75421;-93
2022/06/07 00:31:23;;;;;;;;;;;;;;;;;;;;;
2022/06/07 00:33:49;;;;;;;;;0.00;0.00;;;;;17.99;58.43;101273.94;5067652;27;72906;-92
2022/06/07 00:36:32;;;;;;;;;1.00;1.00;;;;;17.94;58.29;101273.34;5064547;27;45242;-93
2022/06/07 00:39:17;;;;;;;;;;;;;;;;;;;;;
2022/06/07 00:42:43;;;;;;;;;3.25;1.00;;;;;17.95;59.12;101261.03;5069010;27;74708;-92
2022/06/07 00:45:09;;;;;;;;;1.50;1.50;;;;;17.95;59.01;101253.13;5056086;27;45402;-92
2022/06/07 00:47:34;;;;;;;;;1.25;0.25;;;;;17.89;59.78;101246.41;5068385;28;45244;-92
2022/06/07 00:50:17;;;;;;;;;0.50;0.50;;;;;17.87;59.57;101245.63;5038177;27;45452;-93
2022/06/07 00:52:52;;;;;;;;;1.25;1.00;;;;;17.86;59.62;101240.44;5065354;27;46151;-92
2022/06/07 00:55:17;;;;;;;;;0.25;0.25;;;;;17.89;59.69;101240.28;5069726;28;45317;-92
2022/06/07 00:57:57;;;;;;;;;2.00;2.00;;;;;17.85;59.75;101236.97;5064853;27;45515;-93
2022/06/07 01:00:24;;;;;;;;;0.00;0.00;;;;;17.82;60.04;101230.97;5075315;27;45472;-93
2022/06/07 01:02:56;;;;;;;;;1.00;1.00;;;;;17.78;60.22;101227.63;5038983;28;47226;-93
2022/06/07 01:05:22;;;;;;;;;1.00;1.00;;;;;17.77;60.43;101231.19;5052336;28;45447;-92
2022/06/07 01:10:50;;;;;;;;;0.25;0.25;;;;;17.75;60.89;101226.00;5057483;28;45518;-92
2022/06/07 01:13:19;;;;;;;;;1.00;1.00;;;;;17.76;60.96;101227.72;5037866;28;47278;-92
2022/06/07 01:15:46;;;;;;;;;1.00;1.00;;;;;17.76;61.07;101238.25;5057277;28;45615;-92
2022/06/07 01:18:19;;;;;;;;;1.00;1.00;;;;;17.76;60.38;101237.41;5057736;28;45301;-92
2022/06/07 01:20:44;;;;;;;;;2.00;0.00;;;;;17.79;60.96;101237.22;5031639;28;45424;-93
2022/06/07 01:23:12;;;;;;;;;1.00;1.00;;;;;17.74;61.00;101229.56;5066978;28;45491;-92
2022/06/07 01:25:37;;;;;;;;;1.00;1.00;;;;;17.71;60.70;101221.81;5098371;27;44933;-91
2022/06/07 01:28:03;;;;;;;;;2.00;1.25;;;;;17.66;61.48;101213.28;5063938;28;44791;-92
2022/06/07 01:30:29;;;;;;;;;1.00;1.00;;;;;17.65;61.53;101205.50;5088821;27;44875;-93
2022/06/07 01:33:07;;;;;;;;;3.00;1.00;;;;;17.63;61.64;101213.47;5072053;28;45628;-93
2022/06/07 01:36:02;;;;;;;;;2.25;1.00;;;;;17.62;61.73;101209.13;5091681;27;44946;-93
2022/06/07 01:38:35;;;;;;;;;1.00;1.00;;;;;17.64;61.29;101214.31;5062993;28;44802;-93
2022/06/07 01:44:04;;;;;;;;;3.00;1.00;;;;;17.65;61.18;101208.97;5030984;28;45436;-93
2022/06/07 01:46:31;;;;;;;;;2.75;2.00;;;;;17.70;61.81;101208.72;5048885;28;45563;-92
2022/06/07 01:49:11;;;;;;;;;1.00;1.00;;;;;17.68;61.74;101207.97;5041794;28;45462;-93
2022/06/07 01:52:07;;;;;;;;;1.00;1.00;;;;;17.68;62.14;101206.19;5060966;28;45296;-93
2022/06/07 01:54:53;;;;;;;;;0.75;0.75;;;;;17.67;61.72;101206.28;5056041;28;45810;-93
2022/06/07 01:58:12;;;;;;;;;1.00;1.00;;;;;17.61;62.31;101204.81;5060207;28;45320;-93
2022/06/07 02:00:47;;;;;;;;;1.00;0.75;;;;;17.58;62.25;101202.31;5058666;28;45419;-93
2022/06/07 02:03:15;;;;;;;;;1.25;1.25;;;;;17.55;62.72;101205.09;5044109;28;45405;-92
2022/06/07 02:05:43;;;;;;;;;3.75;1.00;;;;;17.55;62.30;101202.47;5057971;28;45499;-92
2022/06/07 02:08:12;;;;;;;;;1.00;1.00;;;;;17.57;62.76;101200.63;5040846;28;45750;-92
2022/06/07 02:10:57;;;;;;;;;1.00;1.00;;;;;17.56;62.68;101198.91;5050221;28;45384;-92
2022/06/07 02:13:41;;;;;;;;;4.00;2.00;;;;;17.57;62.27;101187.47;5025035;28;45394;-92
2022/06/07 02:16:14;;;;;;;;;1.00;1.00;;;;;17.56;62.32;101189.22;5043473;28;45455;-92
2022/06/07 02:18:40;;;;;;;;;1.00;1.00;;;;;17.56;62.59;101191.03;5045593;28;45469;-92
2022/06/07 02:21:08;;;;;;;;;3.25;1.00;;;;;17.56;62.62;101191.03;5032618;28;45463;-92
2022/06/07 02:23:58;;;;;;;;;2.00;1.00;;;;;17.56;62.53;101185.75;5044424;28;45423;-93
2022/06/07 02:26:32;;;;;;;;;1.75;1.75;;;;;17.53;62.31;101186.78;5027943;28;46999;-92
2022/06/07 02:29:13;;;;;;;;;1.00;1.00;;;;;17.52;63.16;101174.53;5041882;28;45850;-93
2022/06/07 02:31:41;;;;;;;;;1.00;1.00;;;;;17.52;63.07;101165.78;5049893;28;45489;-92
2022/06/07 02:34:19;;;;;;;;;2.75;1.50;;;;;17.50;62.70;101171.13;5025931;28;45723;-92
2022/06/07 02:37:04;;;;;;;;;2.00;1.00;;;;;17.54;62.69;101169.19;5046044;28;46519;-91
2022/06/07 02:39:30;;;;;;;;;3.75;1.75;;;;;17.57;63.43;101164.63;5057653;28;45229;-91
2022/06/07 02:42:01;;;;;;;;;2.00;1.00;;;;;17.61;63.04;101163.53;5042157;28;45432;-91
2022/06/07 02:44:34;;;;;;;;;2.00;1.00;;;;;17.61;63.12;101158.28;5042097;28;45235;-91
2022/06/07 02:47:18;;;;;;;;;1.00;1.00;;;;;17.61;62.75;101166.16;5059004;28;45934;-92
2022/06/07 02:49:47;;;;;;;;;1.75;1.75;;;;;17.64;62.35;101148.50;5053100;28;45101;-92
2022/06/07 02:52:16;;;;;;;;;2.00;2.00;;;;;17.66;62.73;101150.13;5045555;28;45397;-91
2022/06/07 02:54:41;;;;;;;;;1.00;1.00;;;;;17.68;62.74;101142.16;5026397;28;45683;-92
2022/06/07 02:57:17;;;;;;;;;2.00;1.75;;;;;17.70;62.75;101150.81;5042103;28;45612;-93
2022/06/07 03:00:00;;;;;;;;;2.00;2.00;;;;;17.70;63.47;101151.69;5040734;28;45507;-92
2022/06/07 03:02:26;;;;;;;;;3.00;2.00;;;;;17.71;62.49;101144.63;5028028;28;45457;-92
2022/06/07 03:05:01;;;;;;;;;1.50;1.50;;;;;17.74;62.73;101145.31;5054890;28;45431;-93
2022/06/07 03:07:26;;;;;;;;;2.75;1.00;;;;;17.73;62.57;101140.97;5021547;28;47195;-93
2022/06/07 03:10:01;;;;;;;;;1.00;1.00;;;;;17.71;63.00;101134.94;5042396;28;45438;-92
2022/06/07 03:12:34;;;;;;;;;1.50;1.50;;;;;17.71;63.13;101137.56;5030742;28;45245;-93
2022/06/07 03:15:17;;;;;;;;;1.50;1.50;;;;;17.72;63.33;101143.72;5041944;28;45311;-92
2022/06/07 03:17:45;;;;;;;;;3.00;1.50;;;;;17.71;62.84;101145.47;5037131;28;47018;-93
2022/06/07 03:20:30;;;;;;;;;1.00;1.00;;;;;17.69;63.26;101142.06;5054388;28;45642;-94
2022/06/07 03:23:21;;;;;;;;;3.00;1.00;;;;;17.65;63.35;101144.97;5040368;28;45243;-93
2022/06/07 03:26:02;;;;;;;;;2.00;1.00;;;;;17.65;64.11;101140.53;5054086;28;45519;-93
2022/06/07 03:28:45;;;;;;;;;;;;;;;;;;;;;
2022/06/07 03:31:26;;;;;;;;;1.00;1.00;;;;;17.63;63.89;101142.41;5054490;28;72109;-94
2022/06/07 03:34:17;;;;;;;;;1.50;1.00;;;;;17.65;63.00;101142.31;5039075;28;45382;-93
2022/06/07 03:36:55;;;;;;;;;3.25;1.00;;;;;17.64;63.64;101145.88;5028386;28;45570;-93
2022/06/07 03:40:10;;;;;;;;;;;;;;;;;;;;;
2022/06/07 03:43:39;;;;;;;;;2.00;2.00;;;;;17.66;63.43;101139.59;5054704;28;73296;-94
2022/06/07 03:46:35;;;;;;;;;1.00;1.00;;;;;17.64;64.02;101135.34;5007776;28;45547;-94
2022/06/07 03:49:42;;;;;;;;;4.00;1.25;;;;;17.58;64.03;101141.78;4980755;28;45398;-93
2022/06/07 03:52:35;;;;;;;;;1.00;1.00;;;;;17.56;64.04;101138.38;4918521;28;45750;-94
2022/06/07 03:58:04;;;;;;;;;2.00;2.00;;;;;17.47;64.67;101141.50;4919147;28;45569;-93
2022/06/07 04:00:59;;;;;;;;;2.00;2.00;;;;;17.45;64.98;101140.72;4919728;28;45398;-93
2022/06/07 04:08:10;;;;;;;;;1.00;1.00;;;;;17.42;66.04;101144.34;4854485;29;45828;-93
2022/06/07 04:10:08;;;;;;;;;2.00;2.00;;;;;17.41;65.35;101147.91;4862378;29;45652;-91
2022/06/07 04:13:10;;;;;;;;;;;;;;;;;;;;;
2022/06/07 04:15:38;;;;;;;;;2.00;2.00;;;;;17.35;65.81;101141.19;4858863;29;73830;-93
2022/06/07 04:18:49;;;;;;;;;1.75;0.75;;;;;17.36;65.94;101134.13;4846362;29;45354;-94
2022/06/07 04:27:56;;;;;;;;;2.00;2.00;;;;;17.31;68.00;101137.00;5327067;22;46675;-91
2022/06/07 04:30:30;;;;;;;;;1.00;1.00;;;;;17.27;68.90;101143.34;4978920;28;45467;-89
2022/06/07 04:33:28;;;;;;;;;;;;;;;;;;;;;
2022/06/07 04:36:03;;;;;;;;;1.00;1.00;;;;;17.21;70.31;101141.88;4911201;28;69015;-94
2022/06/07 04:38:31;;;;;;;;;4.00;1.00;;;;;17.20;69.85;101141.97;4901126;28;46762;-93
2022/06/07 04:41:03;;;;;;;;;1.75;1.00;;;;;17.14;70.20;101143.13;4900366;28;45587;-93
2022/06/07 04:43:29;;;;;;;;;2.25;2.00;;;;;17.07;71.44;101135.59;4888156;28;45211;-91
2022/06/07 04:56:26;;;;;;;;;2.00;2.00;;;;;16.82;74.17;101142.91;4770997;29;45474;-90
2022/06/07 04:58:53;;;;;;;;;1.00;1.00;;;;;16.75;73.82;101141.50;4769192;29;45493;-91
2022/06/07 05:01:25;;;;;;;;;1.50;1.00;;;;;16.64;73.60;101134.13;4753853;29;47116;-90
2022/06/07 05:03:52;;;;;;;;;1.00;1.00;;;;;16.60;75.04;101140.47;4755086;29;45689;-88
2022/06/07 05:06:21;;;;;;;;;2.00;2.00;;;;;16.57;74.37;101137.97;4749496;29;45499;-87
2022/06/07 05:08:46;;;;;;;;;1.00;1.00;;;;;16.49;75.55;101139.25;4769125;29;45655;-88
2022/06/07 05:11:14;;;;;;;;;2.00;2.00;;;;;16.45;74.90;101135.91;4768106;29;46244;-88
2022/06/07 05:13:40;;;;;;;;;3.75;2.00;;;;;16.45;75.32;101136.78;4783998;29;45739;-88
2022/06/07 05:16:06;;;;;;;;;3.75;2.50;;;;;16.48;76.27;101145.44;4775490;29;45450;-87
2022/06/07 05:18:31;;;;;;;;;2.75;2.75;;;;;16.49;75.49;101152.38;4813561;29;45422;-88
2022/06/07 05:20:57;;;;;;;;;5.50;3.00;;;;;16.55;76.58;101141.59;4849842;29;48358;-88
2022/06/07 05:23:22;;;;;;;;;4.00;1.00;;;;;16.56;76.03;101138.88;4827993;29;45561;-88
2022/06/07 05:26:29;;;;;;;;;1.75;1.75;;;;;16.58;76.46;101144.91;4828324;29;46005;-90
2022/06/07 05:28:57;;;;;;;;;3.00;3.00;;;;;16.61;75.41;101143.94;4848644;29;45308;-88
2022/06/07 05:31:24;;;;;;;;;2.00;2.00;;;;;16.61;75.32;101142.16;4884213;29;46369;-89
2022/06/07 05:33:49;;;;;;;;;0.50;0.25;;;;;16.61;75.12;101143.94;4963618;28;45501;-88
2022/06/07 05:36:15;;;;;;;;;3.00;2.75;;;;;16.62;75.60;101141.25;5000543;28;45398;-88
2022/06/07 05:38:41;;;;;;;;;1.00;1.00;;;;;16.65;75.90;101138.44;4984166;28;45652;-88
2022/06/07 05:41:07;;;;;;;;;2.00;2.00;;;;;16.70;74.87;101150.53;4983136;28;68448;-87
2022/06/07 05:43:33;;;;;;;;;3.00;1.25;;;;;16.72;75.66;101144.28;5000534;28;45390;-88
2022/06/07 05:45:59;;;;;;;;;1.75;1.75;;;;;16.75;74.13;101143.25;4999266;28;47482;-88
2022/06/07 05:48:25;;;;;;;;;1.00;1.00;;;;;16.76;74.96;101145.81;5017963;28;45408;-89
2022/06/07 05:50:51;;;;;;;;;2.75;2.00;;;;;16.82;74.76;101155.19;4995299;28;47257;-88
2022/06/07 05:53:17;;;;;;;;;3.00;1.50;;;;;16.86;74.87;101148.88;5000528;28;45513;-89
2022/06/07 05:55:43;;;;;;;;;1.25;1.25;;;;;16.87;75.01;101149.75;5001129;28;45618;-89
2022/06/07 05:58:09;;;;;;;;;1.00;1.00;;;;;16.91;74.60;101151.28;5014425;28;45353;-90
2022/06/07 06:00:36;;;;;;;;;3.00;3.00;;;;;16.96;74.92;101158.03;5000692;28;46059;-90
2022/06/07 06:03:02;;;;;;;;;3.25;2.50;;;;;16.98;74.64;101161.44;4983519;28;45758;-89
2022/06/07 06:05:27;;;;;;;;;2.00;2.00;;;;;16.99;74.51;101162.28;4982806;28;45374;-89
2022/06/07 06:10:36;;;;;;;;;1.50;1.50;;;;;17.03;74.61;101163.81;5018851;28;45876;-89
2022/06/07 06:13:02;;;;;;;;;2.50;1.25;;;;;17.04;74.84;101165.53;5018477;28;45472;-90
2022/06/07 06:15:35;;;;;;;;;1.00;1.00;;;;;17.08;74.23;101161.81;5000819;28;45848;-91
2022/06/07 06:18:03;;;;;;;;;1.00;1.00;;;;;17.14;74.62;101165.94;5000893;28;45421;-90
2022/06/07 06:20:29;;;;;;;;;1.00;1.00;;;;;17.22;74.53;101166.41;5000349;28;46835;-90
2022/06/07 06:22:54;;;;;;;;;2.00;2.00;;;;;17.28;73.75;101154.72;5000814;28;45516;-91
2022/06/07 06:25:20;;;;;;;;;1.00;1.00;;;;;17.37;73.74;101163.00;5004296;28;45508;-93
2022/06/07 06:27:45;;;;;;;;;3.50;2.00;;;;;17.49;73.79;101168.56;5007370;28;45568;-93
2022/06/07 06:30:11;;;;;;;;;4.00;2.00;;;;;17.60;73.40;101166.25;5018565;28;45386;-92
2022/06/07 06:32:37;;;;;;;;;2.00;1.50;;;;;17.67;72.63;101169.41;4998490;28;46119;-92
2022/06/07 06:35:04;;;;;;;;;2.50;1.00;;;;;17.73;72.51;101177.84;4984734;28;45375;-89
2022/06/07 06:37:29;;;;;;;;;2.00;2.00;;;;;17.77;72.77;101181.16;5019690;28;45390;-89
2022/06/07 06:39:55;;;;;;;;;1.00;1.00;;;;;17.75;71.70;101178.59;4999967;28;47300;-90
2022/06/07 06:42:20;;;;;;;;;1.00;1.00;;;;;17.73;72.29;101182.25;5018216;28;45461;-90
2022/06/07 06:44:46;;;;;;;;;1.00;1.00;;;;;17.69;72.18;101181.56;5000334;28;45484;-90
2022/06/07 06:47:13;;;;;;;;;4.00;1.00;;;;;17.65;71.90;101187.91;4999795;28;45424;-91
2022/06/07 06:49:39;;;;;;;;;1.00;1.00;;;;;17.68;71.58;101189.53;4981063;28;48023;-89
2022/06/07 06:52:05;;;;;;;;;1.75;1.75;;;;;17.71;72.14;101184.13;4984486;28;45416;-90
2022/06/07 06:54:33;;;;;;;;;2.00;0.50;;;;;17.79;71.45;101193.34;5000533;28;45331;-88
2022/06/07 06:56:58;;;;;;;;;0.00;0.00;;;;;17.80;71.08;101183.63;5000665;28;45329;-90
2022/06/07 06:59:24;;;;;;;;;1.00;1.00;;;;;17.82;71.19;101192.31;5000084;28;46505;-89
2022/06/07 07:01:50;;;;;;;;;0.50;0.00;;;;;17.89;70.93;101192.88;4983487;28;67913;-93
2022/06/07 07:04:18;;;;;;;;;0.50;0.00;;;;;17.89;70.74;101199.00;5001201;28;45356;-93
2022/06/07 07:06:45;;;;;;;;;1.00;1.00;;;;;17.95;70.52;101195.19;5001952;28;47821;-94
2022/06/07 07:09:11;;;;;;;;;1.00;1.00;;;;;17.98;70.53;101198.50;5001446;28;46616;-89
2022/06/07 07:12:04;;;;;;;;;1.00;1.00;;;;;18.04;70.44;101196.50;5001966;28;45344;-90
2022/06/07 07:14:29;;;;;;;;;1.00;1.00;;;;;18.09;69.84;101210.25;5002868;28;45321;-92
2022/06/07 07:16:55;;;;;;;;;2.00;1.00;;;;;18.10;69.09;101210.16;4998866;28;66514;-89
2022/06/07 07:19:21;;;;;;;;;0.00;0.00;;;;;18.08;69.34;101204.13;4996340;28;47310;-94
2022/06/07 07:21:49;;;;;;;;;0.00;0.00;;;;;18.05;69.04;101214.81;4983825;28;45975;-90
2022/06/07 07:24:17;;;;;;;;;2.00;0.00;;;;;18.04;68.88;101201.75;4997731;28;45492;-89
2022/06/07 07:26:44;;;;;;;;;0.00;0.00;;;;;18.10;68.63;101204.06;4997921;28;45566;-90
2022/06/07 07:29:11;;;;;;;;;0.00;0.00;;;;;18.14;68.38;101211.72;4992033;28;46242;-92
2022/06/07 07:31:37;;;;;;;;;0.00;0.00;;;;;18.23;69.53;101202.47;5000259;28;46467;-91
2022/06/07 07:34:07;;;;;;;;;1.00;1.00;;;;;18.39;68.17;101213.03;4986184;28;45359;-93
2022/06/07 07:36:32;;;;;;;;;2.00;0.75;;;;;18.53;67.47;101213.13;5001372;28;45429;-92
2022/06/07 07:38:58;;;;;;;;;1.00;0.00;;;;;18.57;66.15;101203.25;5018639;28;46329;-93
2022/06/07 07:41:25;;;;;;;;;0.00;0.00;;;;;18.59;66.09;101201.41;5000334;28;45700;-90
2022/06/07 07:43:51;;;;;;;;;0.00;0.00;;;;;18.69;66.85;101207.88;4984972;28;45262;-93
2022/06/07 07:46:18;;;;;;;;;0.00;0.00;;;;;18.85;65.97;101207.03;5001252;28;45648;-88
2022/06/07 07:48:47;;;;;;;;;0.00;0.00;;;;;19.00;65.44;101208.84;5001738;28;46563;-95
2022/06/07 07:51:21;;;;;;;;;0.00;0.00;;;;;19.13;64.08;101209.81;4999723;28;45772;-91
2022/06/07 07:53:47;;;;;;;;;0.00;0.00;;;;;19.21;63.72;101219.94;5002409;28;45362;-86
2022/06/07 07:57:05;;;;;;;;;0.75;0.75;;;;;19.27;64.28;101216.94;5059337;28;45390;-82
2022/06/07 07:59:30;;;;;;;;;0.00;0.00;;;;;19.36;64.14;101220.84;5031821;28;45488;-82
2022/06/07 08:01:56;;;;;;;;;0.00;0.00;;;;;19.42;63.55;101217.81;5045979;28;62411;-82
2022/06/07 08:04:21;;;;;;;;;0.00;0.00;;;;;19.49;63.61;101216.53;5038464;28;55195;-90
2022/06/07 08:06:47;;;;;;;;;1.00;1.00;;;;;19.59;62.99;101216.00;5042351;28;46418;-92
2022/06/07 08:09:12;;;;;;;;;2.00;0.00;;;;;19.61;62.97;101214.09;5051565;28;45344;-93
2022/06/07 08:11:39;;;;;;;;;1.00;0.00;;;;;19.56;61.63;101217.03;5047337;28;45374;-89
2022/06/07 08:14:09;;;;;;;;;2.00;0.00;;;;;19.50;62.00;101222.66;5054352;28;45266;-89
2022/06/07 08:16:35;;;;;;;;;1.00;1.00;;;;;19.45;62.05;101214.19;5034762;28;47547;-93
2022/06/07 08:19:00;;;;;;;;;0.00;0.00;;;;;19.44;62.72;101213.31;5050185;28;45350;-92
2022/06/07 08:21:27;;;;;;;;;1.50;1.00;;;;;19.46;61.43;101210.59;5069983;27;51302;-92
2022/06/07 08:23:57;;;;;;;;;1.00;1.00;;;;;19.52;62.30;101207.59;5037280;28;45325;-91
2022/06/07 08:26:26;;;;;;;;;4.50;1.00;;;;;19.64;62.39;101208.66;5035937;28;46281;-91
2022/06/07 08:28:52;;;;;;;;;1.00;1.00;;;;;19.80;62.56;101204.19;5025692;28;46234;-87
2022/06/07 08:31:20;;;;;;;;;1.25;1.00;;;;;19.99;62.11;101201.28;5038572;28;45261;-87
2022/06/07 08:39:14;;;;;;;;;1.00;1.00;;;;;20.28;60.64;101199.47;5042043;28;45782;-87
2022/06/07 08:41:48;;;;;;;;;1.00;0.75;;;;;20.44;59.77;101206.44;5052093;28;45658;-86
2022/06/07 08:44:23;;;;;;;;;0.25;0.25;;;;;20.46;59.25;101199.25;5035267;28;45340;-88
2022/06/07 08:46:51;;;;;;;;;1.00;1.00;;;;;20.52;59.03;101201.50;5052631;28;46231;-87
2022/06/07 08:49:18;;;;;;;;;1.00;1.00;;;;;20.57;59.27;101202.06;5051406;28;45756;-83
2022/06/07 08:51:56;;;;;;;;;1.50;1.50;;;;;20.56;58.85;101195.09;5035825;28;45733;-84
2022/06/07 08:54:26;;;;;;;;;1.50;0.75;;;;;20.55;58.60;101198.66;5055680;28;45329;-82
2022/06/07 08:56:52;;;;;;;;;1.50;0.25;;;;;20.49;58.60;101204.34;5011753;28;46090;-84
2022/06/07 08:59:19;;;;;;;;;1.00;1.00;;;;;20.57;58.65;101198.56;5037485;28;45874;-87
2022/06/07 09:02:13;;;;;;;;;0.25;0.00;;;;;20.68;58.61;101198.78;5037952;28;45427;-89
2022/06/07 09:04:40;;;;;;;;;1.50;0.00;;;;;20.62;57.53;101196.53;5043907;28;45388;-86
2022/06/07 09:07:13;;;;;;;;;0.25;0.25;;;;;20.49;57.03;101199.91;5040480;28;46287;-85
2022/06/07 09:12:29;;;;;;;;;0.00;0.00;;;;;20.33;57.81;101193.03;5032905;28;45869;-85
2022/06/07 09:15:18;;;;;;;;;0.00;0.00;;;;;20.39;58.12;101208.50;5043705;28;45501;-86
2022/06/07 09:17:47;;;;;;;;;1.00;1.00;;;;;20.47;56.49;101214.19;5019233;28;46381;-86
2022/06/07 09:20:35;;;;;;;;;0.00;0.00;;;;;20.45;57.22;101211.63;5011565;28;45618;-86
2022/06/07 09:23:24;;;;;;;;;1.00;0.00;;;;;20.42;57.11;101209.16;5016754;28;45451;-86
2022/06/07 09:25:52;;;;;;;;;0.00;0.00;;;;;20.38;56.85;101210.31;5020558;28;45510;-85
2022/06/07 09:28:30;;;;;;;;;0.50;0.50;;;;;20.39;57.32;101206.75;5031347;28;46310;-86
2022/06/07 09:31:17;;;;;;;;;0.00;0.00;;;;;20.22;56.79;101202.47;5032629;28;45752;-86
2022/06/07 09:33:48;;;;;;;;;0.00;0.00;;;;;20.08;56.96;101210.44;5025952;28;45609;-86
2022/06/07 09:36:21;;;;;;;;;0.00;0.00;;;;;20.13;57.13;101215.41;5021109;28;45596;-86
2022/06/07 09:38:51;;;;;;;;;0.00;0.00;;;;;20.30;56.87;101210.81;5022446;28;48336;-88
2022/06/07 09:41:36;;;;;;;;;0.00;0.00;;;;;20.54;57.28;101207.56;5014626;28;45722;-86
2022/06/07 09:44:29;;;;;;;;;0.00;0.00;;;;;20.78;56.80;101199.03;5030071;28;45523;-89
2022/06/07 09:47:15;;;;;;;;;0.00;0.00;;;;;20.93;56.13;101190.09;5032171;28;45200;-89
2022/06/07 09:49:42;;;;;;;;;0.75;0.75;;;;;21.04;56.62;101200.84;5029611;28;46838;-93
2022/06/07 09:52:23;;;;;;;;;1.00;1.00;;;;;21.12;56.53;101192.38;5023008;28;45499;-92
2022/06/07 09:54:52;;;;;;;;;0.75;0.00;;;;;21.10;55.57;101186.34;5021714;28;45465;-91
2022/06/07 09:57:41;;;;;;;;;0.00;0.00;;;;;21.06;54.89;101187.47;5023464;28;45510;-86
2022/06/07 10:00:22;;;;;;;;;0.00;0.00;;;;;21.23;54.60;101189.03;5024388;28;46258;-92
2022/06/07 10:03:08;;;;;;;;;0.00;0.00;;;;;21.45;53.87;101191.97;5026381;28;45475;-92
2022/06/07 10:05:43;;;;;;;;;1.50;0.00;;;;;21.68;54.12;101184.25;5037957;28;46750;-87
2022/06/07 10:08:31;;;;;;;;;0.00;0.00;;;;;21.90;53.83;101190.69;5032979;28;45420;-85
2022/06/07 10:11:04;;;;;;;;;0.25;0.25;;;;;22.10;53.21;101187.53;5033945;28;46584;-86
2022/06/07 10:13:48;;;;;;;;;0.25;0.25;;;;;22.17;52.79;101179.97;5034704;28;45696;-83
2022/06/07 10:16:22;;;;;;;;;1.00;1.00;;;;;22.08;52.29;101186.75;5025889;28;45508;-85
2022/06/07 10:19:25;;;;;;;;;1.50;0.00;;;;;21.97;52.54;101191.97;5022996;28;45493;-86
2022/06/07 10:22:02;;;;;;;;;1.25;0.00;;;;;21.99;52.63;101179.44;5031769;28;47913;-86
2022/06/07 10:24:48;;;;;;;;;0.00;0.00;;;;;21.93;52.54;101186.03;5026875;28;45769;-86
2022/06/07 10:27:20;;;;;;;;;1.00;1.00;;;;;22.08;51.95;101183.25;5053905;28;45392;-86
2022/06/07 10:30:04;;;;;;;;;0.00;0.00;;;;;22.36;52.33;101180.41;5027883;28;45599;-84
2022/06/07 10:32:50;;;;;;;;;0.00;0.00;;;;;22.57;51.47;101175.34;5023745;28;45555;-83
2022/06/07 10:35:22;;;;;;;;;0.25;0.00;;;;;22.81;51.20;101171.84;5031660;28;45930;-85
2022/06/07 10:37:57;;;;;;;;;0.00;0.00;;;;;23.07;51.10;101172.59;5031738;28;45468;-87
2022/06/07 10:40:59;;;;;;;;;0.00;0.00;;;;;23.16;50.14;101171.03;5019824;28;45333;-90
2022/06/07 10:43:34;;;;;;;;;0.00;0.00;;;;;23.09;49.58;101164.53;5035497;28;45434;-90
2022/06/07 10:46:02;;;;;;;;;0.00;0.00;;;;;23.02;49.12;101172.06;5031955;28;45698;-84
2022/06/07 10:48:33;;;;;;;;;0.00;0.00;;;;;22.83;48.26;101177.91;5033396;28;45405;-87
2022/06/07 10:54:04;;;;;;;;;3.00;0.00;;;;;22.35;47.74;101162.78;5032066;28;46078;-87
2022/06/07 10:56:33;;;;;;;;;0.50;0.00;;;;;22.30;48.39;101172.03;5025124;28;45724;-86
2022/06/07 10:59:01;;;;;;;;;0.00;0.00;;;;;22.22;47.77;101173.38;5020061;28;45527;-90
2022/06/07 11:01:40;;;;;;;;;0.00;0.00;;;;;22.24;47.93;101174.09;5035481;28;45499;-91
2022/06/07 11:10:14;;;;;;;;;0.00;0.00;;;;;22.27;47.69;101170.44;5042230;28;45314;-91
2022/06/07 11:12:49;;;;;;;;;0.50;0.00;;;;;22.27;48.72;101170.44;5022461;28;45342;-91
2022/06/07 11:15:38;;;;;;;;;0.00;0.00;;;;;22.50;48.26;101158.16;5028127;28;46696;-88
2022/06/07 11:18:11;;;;;;;;;0.00;0.00;;;;;22.98;46.93;101152.84;5029768;28;45642;-88
2022/06/07 11:20:48;;;;;;;;;1.00;1.00;;;;;23.29;46.33;101160.34;5024133;28;45220;-90
2022/06/07 11:23:19;;;;;;;;;1.00;0.00;;;;;23.69;45.41;101159.94;5029993;28;45487;-89
2022/06/07 11:26:06;;;;;;;;;0.00;0.00;;;;;23.83;45.14;101164.19;5018454;28;46320;-89
2022/06/07 11:28:41;;;;;;;;;0.25;0.00;;;;;23.68;44.13;101174.19;5029927;28;45290;-90
2022/06/07 11:31:15;;;;;;;;;0.00;0.00;;;;;23.38;45.48;101162.28;5016959;28;45626;-89
2022/06/07 11:33:53;;;;;;;;;0.00;0.00;;;;;23.15;45.94;101177.34;5020211;28;45435;-87
2022/06/07 11:36:24;;;;;;;;;0.00;0.00;;;;;23.76;46.58;101177.94;5023298;28;46606;-89
2022/06/07 11:41:38;;;;;;;;;0.25;0.00;;;;;24.87;43.51;101170.94;5032140;28;45462;-88
2022/06/07 11:44:10;;;;;;;;;1.00;0.00;;;;;26.06;44.23;101173.31;5033235;28;45652;-91
2022/06/07 11:46:35;;;;;;;;;0.00;0.00;;;;;29.91;41.29;101157.97;5033273;28;46919;-91
2022/06/07 11:49:22;;;;;;;;;0.00;0.00;;;;;33.66;32.20;101162.59;5032863;28;45240;-91
2022/06/07 11:51:50;;;;;;;;;0.00;0.00;;;;;32.22;32.27;101159.69;5028502;28;45221;-89
2022/06/07 11:54:16;;;;;;;;;0.00;0.00;;;;;30.22;32.83;101159.25;5032553;28;45404;-93
2022/06/07 11:56:45;;;;;;;;;0.00;0.00;;;;;28.70;34.19;101155.06;5031438;28;48254;-91
2022/06/07 11:59:18;;;;;;;;;0.00;0.00;;;;;27.30;35.80;101164.94;5034158;28;45905;-91
2022/06/07 12:01:47;;;;;;;;;0.00;0.00;;;;;26.17;37.99;101163.50;5031199;28;45521;-88
2022/06/07 12:04:36;;;;;;;;;0.00;0.00;;;;;28.21;38.76;101159.00;5065136;28;45383;-88
2022/06/07 12:07:22;;;;;;;;;0.00;0.00;;;;;29.82;35.12;101152.72;5062651;28;45518;-87
2022/06/07 12:09:53;;;;;;;;;0.00;0.00;;;;;29.69;33.29;101162.00;5030921;28;45687;-88
2022/06/07 12:12:34;;;;;;;;;0.00;0.00;;;;;30.22;33.07;101151.19;5031864;28;45471;-87
2022/06/07 12:15:21;;;;;;;;;0.00;0.00;;;;;32.05;31.25;101141.09;5030289;28;45530;-88
2022/06/07 12:17:55;;;;;;;;;0.00;0.00;;;;;34.42;29.59;101145.28;5032778;28;46395;-88
2022/06/07 12:20:36;;;;;;;;;0.00;0.00;;;;;34.63;28.37;101137.16;5031920;28;45479;-89
2022/06/07 12:23:30;;;;;;;;;0.00;0.00;;;;;33.25;28.99;101143.28;5031734;28;45509;-87
2022/06/07 12:26:00;;;;;;;;;0.00;0.00;;;;;31.89;29.46;101137.44;5029356;28;45283;-87
2022/06/07 12:28:29;;;;;;;;;0.00;0.00;;;;;30.64;30.33;101140.41;5066083;28;46598;-87
2022/06/07 12:30:55;;;;;;;;;0.00;0.00;;;;;29.94;31.68;101145.22;5047382;28;45942;-87
2022/06/07 12:33:33;;;;;;;;;0.00;0.00;;;;;30.55;31.25;101141.38;5030027;28;50464;-86
2022/06/07 12:36:08;;;;;;;;;0.00;0.00;;;;;31.61;31.71;101139.69;5028352;28;45479;-86
2022/06/07 12:38:34;;;;;;;;;0.25;0.00;;;;;32.25;30.18;101136.94;5064525;28;46308;-87
2022/06/07 12:41:01;;;;;;;;;1.00;0.00;;;;;31.59;30.53;101139.03;5028667;28;70014;-86
2022/06/07 12:43:32;;;;;;;;;1.00;0.00;;;;;30.52;30.26;101133.69;5036491;28;45277;-86
2022/06/07 12:46:07;;;;;;;;;0.25;0.00;;;;;30.33;32.90;101129.47;5033543;28;45336;-84
2022/06/07 12:48:38;;;;;;;;;0.00;0.00;;;;;31.33;30.16;101129.31;5033309;28;46412;-85
2022/06/07 12:51:19;;;;;;;;;0.00;0.00;;;;;32.67;30.89;101130.28;5028632;28;45471;-84
2022/06/07 12:53:48;;;;;;;;;0.00;0.00;;;;;33.79;28.59;101128.72;5032566;28;45541;-84
2022/06/07 12:56:15;;;;;;;;;0.00;0.00;;;;;34.57;28.31;101131.69;5034481;28;45474;-84
2022/06/07 12:58:47;;;;;;;;;0.00;0.00;;;;;34.49;27.71;101124.53;5030594;28;45367;-84
2022/06/07 13:01:27;;;;;;;;;0.00;0.00;;;;;34.65;26.22;101132.38;5028795;28;45642;-85
2022/06/07 13:03:56;;;;;;;;;0.00;0.00;;;;;34.45;26.82;101124.09;5023554;28;45495;-85
2022/06/07 13:06:21;;;;;;;;;0.00;0.00;;;;;34.95;28.00;101126.03;5045707;28;51746;-85
2022/06/07 13:09:03;;;;;;;;;0.00;0.00;;;;;36.20;25.84;101119.69;5025770;28;46152;-85
2022/06/07 13:11:31;;;;;;;;;0.00;0.00;;;;;36.65;24.78;101110.97;5033574;28;45317;-84
2022/06/07 13:13:59;;;;;;;;;0.00;0.00;;;;;37.33;24.11;101104.50;5016123;28;45385;-84
2022/06/07 13:16:32;;;;;;;;;1.00;0.00;;;;;38.34;22.48;101109.28;5009738;28;45525;-84
2022/06/07 13:19:17;;;;;;;;;0.00;0.00;;;;;39.38;22.80;101119.72;5031499;28;46412;-86
2022/06/07 13:21:59;;;;;;;;;0.00;0.00;;;;;38.47;22.46;101115.69;5032698;28;45743;-85
2022/06/07 13:24:48;;;;;;;;;0.00;0.00;;;;;37.13;23.47;101118.06;5013100;28;45650;-85